Terminal Aerodrome Forecast
Issued by NWS Dodge City, KS

Home | Current Version | Previous Version | Graphics & Text | Print | Product List | Glossary Off
Versions: 1 2 3 4 5 6 7 8 9 10 11 12 13 14 15 16 17 18 19 20 21 22 23 24 25 26 27 28 29 30 31 32 33 34 35 36 37 38 39 40 41

710
FTUS43 KDDC 241415 AAB
TAFDDC
TAF AMD
KDDC 241415Z 2414/2512 VRB06KT P6SM -RA OVC040
      TEMPO 2414/2418 3SM -RA BR BKN030
     FM242000 18015KT P6SM VCTS BKN060CB
     FM250500 17009KT P6SM -SHRA VCTS BKN070CB=

USA.gov is the U.S. government's official web portal to all federal, state and local government web resources and services.